createdAt,value
2018-12-18T00:00:00.815Z,43.14
2018-12-18T00:01:03.757Z,43.28
2018-12-18T00:02:08.204Z,43.16
2018-12-18T00:03:10.674Z,42.92
2018-12-18T00:04:13.154Z,43.37
2018-12-18T00:05:21.348Z,43.40
2018-12-18T00:06:23.830Z,42.81
2018-12-18T00:07:26.393Z,43.01
2018-12-18T00:08:28.878Z,43.37
2018-12-18T00:09:31.368Z,43.53
2018-12-18T00:10:39.458Z,43.20
2018-12-18T00:11:41.943Z,43.09
2018-12-18T00:12:44.438Z,43.21
2018-12-18T00:13:46.931Z,43.70
2018-12-18T00:14:49.411Z,43.68
2018-12-18T00:15:51.907Z,43.22
2018-12-18T00:16:54.397Z,43.10
2018-12-18T00:17:56.880Z,43.04
2018-12-18T00:18:59.354Z,43.52
2018-12-18T00:20:01.836Z,43.11
2018-12-18T00:21:04.320Z,43.15
2018-12-18T00:22:07.041Z,43.49
2018-12-18T00:23:09.532Z,42.92
2018-12-18T00:24:12.027Z,43.58
2018-12-18T00:25:14.506Z,43.04
2018-12-18T00:26:17.104Z,42.90
2018-12-18T00:27:19.578Z,43.17
2018-12-18T00:28:22.086Z,42.90
2018-12-18T00:29:24.554Z,43.35
2018-12-18T00:30:27.003Z,43.42
2018-12-18T00:31:29.532Z,43.08
2018-12-18T00:32:32.015Z,43.35
2018-12-18T00:33:34.509Z,43.44
2018-12-18T00:34:36.972Z,43.69
2018-12-18T00:35:39.439Z,43.97
2018-12-18T00:36:41.928Z,44.16
2018-12-18T00:37:44.428Z,43.35
2018-12-18T00:38:46.918Z,43.61
2018-12-18T00:39:49.381Z,43.54
2018-12-18T00:40:51.905Z,43.59
2018-12-18T00:41:56.369Z,43.23
2018-12-18T00:42:58.856Z,43.59
2018-12-18T00:44:01.347Z,43.29
2018-12-18T00:45:04.550Z,43.26
2018-12-18T00:46:07.020Z,43.09
2018-12-18T00:47:09.486Z,43.00
2018-12-18T00:48:11.958Z,42.88
2018-12-18T00:49:14.458Z,43.21
2018-12-18T00:50:16.919Z,43.61
2018-12-18T00:51:19.447Z,43.43
2018-12-18T00:52:21.918Z,43.72
2018-12-18T00:53:24.384Z,43.38
2018-12-18T00:54:26.874Z,43.71
2018-12-18T00:55:29.367Z,43.80
2018-12-18T00:56:31.857Z,43.54
2018-12-18T00:57:34.328Z,44.09
2018-12-18T00:58:36.803Z,43.41
2018-12-18T00:59:39.337Z,44.13
2018-12-18T01:00:41.815Z,43.80
2018-12-18T01:01:46.278Z,44.09
2018-12-18T01:02:48.750Z,43.65
2018-12-18T01:03:52.969Z,43.77
2018-12-18T01:04:55.766Z,43.65
2018-12-18T01:05:58.267Z,43.49
2018-12-18T01:07:00.738Z,43.94
2018-12-18T01:08:03.205Z,43.99
2018-12-18T01:09:06.428Z,43.49
2018-12-18T01:10:09.094Z,43.05
2018-12-18T01:11:11.551Z,43.23
2018-12-18T01:12:14.012Z,43.29
2018-12-18T01:13:16.491Z,43.51
2018-12-18T01:14:19.611Z,43.67
2018-12-18T01:15:22.110Z,43.83
2018-12-18T01:16:24.586Z,43.68
2018-12-18T01:17:27.110Z,43.57
2018-12-18T01:18:29.677Z,43.66
2018-12-18T01:19:32.195Z,43.65
2018-12-18T01:20:34.708Z,43.50
2018-12-18T01:21:37.195Z,43.82
2018-12-18T01:22:39.660Z,43.43
2018-12-18T01:23:42.129Z,43.30
2018-12-18T01:24:44.624Z,43.68
2018-12-18T01:25:47.122Z,43.04
2018-12-18T01:26:49.579Z,43.16
2018-12-18T01:27:52.050Z,43.39
2018-12-18T01:28:54.534Z,43.22
2018-12-18T01:29:57.028Z,43.24
2018-12-18T01:30:59.544Z,43.57
2018-12-18T01:32:02.023Z,42.98
2018-12-18T01:33:04.523Z,42.90
2018-12-18T01:34:07.030Z,43.09
2018-12-18T01:35:09.529Z,43.41
2018-12-18T01:36:12.061Z,43.78
2018-12-18T01:37:14.524Z,43.62
2018-12-18T01:38:17.003Z,43.42
2018-12-18T01:39:19.478Z,43.77
2018-12-18T01:40:22.027Z,43.32
2018-12-18T01:41:24.654Z,43.53
2018-12-18T01:42:27.131Z,43.41
2018-12-18T01:43:29.625Z,43.08
2018-12-18T01:44:32.076Z,43.25
2018-12-18T01:45:34.605Z,43.11
2018-12-18T01:46:37.217Z,43.47
2018-12-18T01:47:39.695Z,43.31
2018-12-18T01:48:42.167Z,43.52
2018-12-18T01:49:44.651Z,43.93
2018-12-18T01:50:47.125Z,43.56
2018-12-18T01:51:49.620Z,43.54
2018-12-18T01:52:52.121Z,43.54
2018-12-18T01:53:54.602Z,43.34
2018-12-18T01:54:57.086Z,43.45
2018-12-18T01:55:59.540Z,43.41
2018-12-18T01:57:02.016Z,43.57
2018-12-18T01:58:04.576Z,43.64
2018-12-18T01:59:07.043Z,43.33
2018-12-18T02:00:09.582Z,43.56
2018-12-18T02:01:12.043Z,43.49
2018-12-18T02:02:14.531Z,43.49
2018-12-18T02:03:17.020Z,43.56
2018-12-18T02:04:19.494Z,43.38
2018-12-18T02:05:21.952Z,43.33
2018-12-18T02:06:24.440Z,43.28
2018-12-18T02:07:26.945Z,43.31
2018-12-18T02:08:29.438Z,43.26
2018-12-18T02:09:33.274Z,43.32
2018-12-18T02:10:37.737Z,43.08
2018-12-18T02:11:40.225Z,43.14
2018-12-18T02:12:42.733Z,43.04
2018-12-18T02:13:45.210Z,43.50
2018-12-18T02:14:47.687Z,43.14
2018-12-18T02:15:50.160Z,43.17
2018-12-18T02:16:52.632Z,43.11
2018-12-18T02:17:55.147Z,42.83
2018-12-18T02:18:57.650Z,43.26
2018-12-18T02:20:00.198Z,42.68
2018-12-18T02:21:02.700Z,43.34
2018-12-18T02:22:05.270Z,43.17
2018-12-18T02:23:07.809Z,43.29
2018-12-18T02:24:10.308Z,43.35
2018-12-18T02:25:12.867Z,43.02
2018-12-18T02:26:15.358Z,43.33
2018-12-18T02:27:17.823Z,43.17
2018-12-18T02:28:20.334Z,42.96
2018-12-18T02:29:22.822Z,42.77
2018-12-18T02:30:25.297Z,43.30
2018-12-18T02:31:27.785Z,43.23
2018-12-18T02:32:30.278Z,43.07
2018-12-18T02:33:32.779Z,42.86
2018-12-18T02:34:35.390Z,43.42
2018-12-18T02:35:37.863Z,43.23
2018-12-18T02:36:40.349Z,43.32
2018-12-18T02:37:42.830Z,43.34
2018-12-18T02:38:45.342Z,42.86
2018-12-18T02:39:47.850Z,42.77
2018-12-18T02:40:50.327Z,43.16
2018-12-18T02:41:52.802Z,43.11
2018-12-18T02:42:55.274Z,43.25
2018-12-18T02:43:57.783Z,42.87
2018-12-18T02:45:00.327Z,43.26
2018-12-18T02:46:02.800Z,43.07
2018-12-18T02:47:05.260Z,42.86
2018-12-18T02:48:07.731Z,42.41
2018-12-18T02:49:10.241Z,43.04
2018-12-18T02:50:12.709Z,43.08
2018-12-18T02:51:15.188Z,42.67
2018-12-18T02:52:17.701Z,42.75
2018-12-18T02:53:20.198Z,42.35
2018-12-18T02:54:22.692Z,42.90
2018-12-18T02:55:25.180Z,42.76
2018-12-18T02:56:27.644Z,42.86
2018-12-18T02:57:30.138Z,42.85
2018-12-18T02:58:32.637Z,43.12
2018-12-18T02:59:35.142Z,43.45
2018-12-18T03:00:37.599Z,43.40
2018-12-18T03:01:40.115Z,43.60
2018-12-18T03:02:42.611Z,43.22
2018-12-18T03:03:45.092Z,43.32
2018-12-18T03:04:47.609Z,43.28
2018-12-18T03:05:50.091Z,43.36
2018-12-18T03:06:52.569Z,43.96
2018-12-18T03:07:55.162Z,43.71
2018-12-18T03:08:57.621Z,42.98
2018-12-18T03:10:00.120Z,43.59
2018-12-18T03:11:02.581Z,43.05
2018-12-18T03:12:05.038Z,43.31
2018-12-18T03:13:07.507Z,43.25
2018-12-18T03:14:09.991Z,43.60
2018-12-18T03:15:12.502Z,43.36
2018-12-18T03:16:15.205Z,43.33
2018-12-18T03:17:17.669Z,43.68
2018-12-18T03:18:20.144Z,43.61
2018-12-18T03:19:22.615Z,43.32
2018-12-18T03:20:25.160Z,43.44
2018-12-18T03:21:27.689Z,43.41
2018-12-18T03:22:30.179Z,43.51
2018-12-18T03:23:32.716Z,43.75
2018-12-18T03:24:35.246Z,43.90
2018-12-18T03:25:37.736Z,43.76
2018-12-18T03:26:40.232Z,43.42
2018-12-18T03:27:42.704Z,43.55
2018-12-18T03:28:45.182Z,43.87
2018-12-18T03:29:47.678Z,43.51
2018-12-18T03:30:50.191Z,43.38
2018-12-18T03:31:52.855Z,42.86
2018-12-18T03:32:55.638Z,43.30
2018-12-18T03:33:58.241Z,43.19
2018-12-18T03:35:00.718Z,43.32
2018-12-18T03:36:03.253Z,43.48
2018-12-18T03:37:05.758Z,43.66
2018-12-18T03:38:08.234Z,43.23
2018-12-18T03:39:10.691Z,43.35
2018-12-18T03:40:14.257Z,43.70
2018-12-18T03:41:16.847Z,43.34
2018-12-18T03:42:19.409Z,43.35
2018-12-18T03:43:21.894Z,43.13
2018-12-18T03:44:24.372Z,43.53
2018-12-18T03:45:26.850Z,43.58
2018-12-18T03:46:29.351Z,43.90
2018-12-18T03:47:31.836Z,43.75
2018-12-18T03:48:34.350Z,43.73
2018-12-18T03:49:36.842Z,43.69
2018-12-18T03:50:39.309Z,43.43
2018-12-18T03:51:41.814Z,43.24
2018-12-18T03:52:44.293Z,43.47
2018-12-18T03:53:46.777Z,43.36
2018-12-18T03:54:49.246Z,43.29
2018-12-18T03:55:51.751Z,43.68
2018-12-18T03:56:54.247Z,43.20
2018-12-18T03:57:56.736Z,43.30
2018-12-18T03:58:59.200Z,42.87
2018-12-18T04:00:01.675Z,43.28
2018-12-18T04:01:04.136Z,43.05
2018-12-18T04:02:06.639Z,43.25
2018-12-18T04:03:09.099Z,43.04
2018-12-18T04:04:11.566Z,43.48
2018-12-18T04:05:14.069Z,43.62
2018-12-18T04:06:16.551Z,43.61
2018-12-18T04:07:19.049Z,43.38
2018-12-18T04:08:21.526Z,43.12
2018-12-18T04:09:24.004Z,42.92
2018-12-18T04:10:26.467Z,42.72
2018-12-18T04:11:28.923Z,42.96
2018-12-18T04:12:31.437Z,43.28
2018-12-18T04:13:33.910Z,42.49
2018-12-18T04:14:37.124Z,42.93
2018-12-18T04:15:39.605Z,43.13
2018-12-18T04:16:42.073Z,42.65
2018-12-18T04:17:44.549Z,42.39
2018-12-18T04:18:47.021Z,42.42
2018-12-18T04:19:49.500Z,42.88
2018-12-18T04:20:51.958Z,42.77
2018-12-18T04:21:54.436Z,42.64
2018-12-18T04:22:56.931Z,43.10
2018-12-18T04:23:59.484Z,42.82
2018-12-18T04:25:01.954Z,42.30
2018-12-18T04:26:04.449Z,43.05
2018-12-18T04:27:06.943Z,42.52
2018-12-18T04:28:09.425Z,42.77
2018-12-18T04:29:11.920Z,42.49
2018-12-18T04:30:14.480Z,42.63
2018-12-18T04:31:16.936Z,42.72
2018-12-18T04:32:19.408Z,42.43
2018-12-18T04:33:21.898Z,42.70
2018-12-18T04:34:24.385Z,42.81
2018-12-18T04:35:26.903Z,42.14
2018-12-18T04:36:29.389Z,42.71
2018-12-18T04:37:31.877Z,41.99
2018-12-18T04:38:34.389Z,42.38
2018-12-18T04:39:36.866Z,42.13
2018-12-18T04:40:39.448Z,42.42
2018-12-18T04:41:41.930Z,42.67
2018-12-18T04:42:44.398Z,42.52
2018-12-18T04:43:46.898Z,42.74
2018-12-18T04:44:49.383Z,42.82
2018-12-18T04:45:51.851Z,42.15
2018-12-18T04:46:54.361Z,42.08
2018-12-18T04:47:56.828Z,42.61
2018-12-18T04:48:59.336Z,42.75
2018-12-18T04:50:01.850Z,42.34
2018-12-18T04:51:04.330Z,42.04
2018-12-18T04:52:06.814Z,42.08
2018-12-18T04:53:09.272Z,42.28
2018-12-18T04:54:11.779Z,42.08
2018-12-18T04:55:14.277Z,42.53
2018-12-18T04:56:16.777Z,42.67
2018-12-18T04:57:19.265Z,42.46
2018-12-18T04:58:21.731Z,42.19
2018-12-18T04:59:24.203Z,42.27
2018-12-18T05:00:27.148Z,41.97
2018-12-18T05:01:29.607Z,42.33
2018-12-18T05:02:32.090Z,42.19
2018-12-18T05:03:34.559Z,42.37
2018-12-18T05:04:37.074Z,42.42
2018-12-18T05:05:39.609Z,41.90
2018-12-18T05:06:42.094Z,42.55
2018-12-18T05:07:44.574Z,42.12
2018-12-18T05:08:47.051Z,41.80
2018-12-18T05:09:49.545Z,41.90
2018-12-18T05:10:52.038Z,42.11
2018-12-18T05:11:54.576Z,41.77
2018-12-18T05:12:57.057Z,41.79
2018-12-18T05:13:59.557Z,41.88
2018-12-18T05:15:02.081Z,41.58
2018-12-18T05:16:04.581Z,42.22
2018-12-18T05:17:07.071Z,42.22
2018-12-18T05:18:09.570Z,41.85
2018-12-18T05:19:12.054Z,42.06
2018-12-18T05:20:14.539Z,41.66
2018-12-18T05:21:17.023Z,41.99
2018-12-18T05:22:19.514Z,41.38
2018-12-18T05:23:21.990Z,41.46
2018-12-18T05:24:24.517Z,41.89
2018-12-18T05:25:27.008Z,42.19
2018-12-18T05:26:29.488Z,41.81
2018-12-18T05:27:31.964Z,41.63
2018-12-18T05:28:34.428Z,41.99
2018-12-18T05:29:36.883Z,41.80
2018-12-18T05:30:39.364Z,41.72
2018-12-18T05:31:41.854Z,42.04
2018-12-18T05:32:44.328Z,41.87
2018-12-18T05:33:46.810Z,41.93
2018-12-18T05:34:49.356Z,41.66
2018-12-18T05:35:51.873Z,41.66
2018-12-18T05:36:54.369Z,41.80
2018-12-18T05:37:56.845Z,41.90
2018-12-18T05:38:59.506Z,42.55
2018-12-18T05:40:02.061Z,42.98
2018-12-18T05:41:04.614Z,42.60
2018-12-18T05:42:07.107Z,42.54
2018-12-18T05:43:09.572Z,42.17
2018-12-18T05:44:12.066Z,42.80
2018-12-18T05:45:14.557Z,42.27
2018-12-18T05:46:17.046Z,42.76
2018-12-18T05:47:19.508Z,42.17
2018-12-18T05:48:21.965Z,42.50
2018-12-18T05:49:24.453Z,42.54
2018-12-18T05:50:27.380Z,42.60
2018-12-18T05:51:29.878Z,42.38
2018-12-18T05:52:32.364Z,42.49
2018-12-18T05:53:34.842Z,42.69
2018-12-18T05:54:37.341Z,42.97
2018-12-18T05:55:39.819Z,43.09
2018-12-18T05:56:42.325Z,42.91
2018-12-18T05:57:44.779Z,43.13
2018-12-18T05:58:47.319Z,43.22
2018-12-18T05:59:49.816Z,43.63
2018-12-18T06:00:52.307Z,42.84
2018-12-18T06:01:54.806Z,43.21
2018-12-18T06:02:57.302Z,43.31
2018-12-18T06:03:59.780Z,42.86
2018-12-18T06:05:03.332Z,43.77
2018-12-18T06:06:06.198Z,43.38
2018-12-18T06:07:08.702Z,43.41
2018-12-18T06:08:11.166Z,43.75
2018-12-18T06:09:13.666Z,43.55
2018-12-18T06:10:16.164Z,43.33
2018-12-18T06:11:18.650Z,43.58
2018-12-18T06:12:21.726Z,43.26
2018-12-18T06:13:24.183Z,43.33
2018-12-18T06:14:26.649Z,43.09
2018-12-18T06:15:29.163Z,42.92
2018-12-18T06:16:31.758Z,43.32
2018-12-18T06:17:34.277Z,43.41
2018-12-18T06:18:36.776Z,43.10
2018-12-18T06:19:39.305Z,43.53
2018-12-18T06:20:41.785Z,42.85
2018-12-18T06:21:44.250Z,43.09
2018-12-18T06:22:46.751Z,43.39
2018-12-18T06:23:49.238Z,42.88
2018-12-18T06:24:51.703Z,43.05
2018-12-18T06:25:54.174Z,43.52
2018-12-18T06:26:56.650Z,43.56
2018-12-18T06:27:59.141Z,43.26
2018-12-18T06:29:01.608Z,43.71
2018-12-18T06:30:04.926Z,43.59
2018-12-18T06:31:07.387Z,43.80
2018-12-18T06:32:09.867Z,44.24
2018-12-18T06:33:12.505Z,43.84
2018-12-18T06:34:14.982Z,43.39
2018-12-18T06:35:17.468Z,42.53
2018-12-18T06:36:20.023Z,41.89
2018-12-18T06:37:22.662Z,41.94
2018-12-18T06:38:25.238Z,41.78
2018-12-18T06:39:27.742Z,41.68
2018-12-18T06:40:30.333Z,41.61
2018-12-18T06:41:32.815Z,41.64
2018-12-18T06:42:35.280Z,41.46
2018-12-18T06:43:37.792Z,41.75
2018-12-18T06:44:40.319Z,41.51
2018-12-18T06:45:42.803Z,41.37
2018-12-18T06:46:45.308Z,40.98
2018-12-18T06:47:47.830Z,41.28
2018-12-18T06:48:50.424Z,41.71
2018-12-18T06:49:52.933Z,41.09
2018-12-18T06:50:55.419Z,41.84
2018-12-18T06:51:57.891Z,41.54
2018-12-18T06:53:00.397Z,40.83
2018-12-18T06:54:02.903Z,40.67
2018-12-18T06:55:05.402Z,40.98
2018-12-18T06:56:07.882Z,39.99
2018-12-18T06:57:10.341Z,40.38
2018-12-18T06:58:12.826Z,39.67
2018-12-18T06:59:15.307Z,39.15
2018-12-18T07:00:17.790Z,39.19
2018-12-18T07:01:20.274Z,39.28
2018-12-18T07:02:22.735Z,39.29
2018-12-18T07:03:25.225Z,38.21
2018-12-18T07:04:27.715Z,37.90
2018-12-18T07:05:30.213Z,38.42
2018-12-18T07:06:32.713Z,38.18
2018-12-18T07:07:35.188Z,38.52
2018-12-18T07:08:37.666Z,38.35
2018-12-18T07:09:40.177Z,38.79
2018-12-18T07:10:42.663Z,39.34
2018-12-18T07:11:45.134Z,38.76
2018-12-18T07:12:47.629Z,39.44
2018-12-18T07:13:50.095Z,39.41
2018-12-18T07:14:52.606Z,39.44
2018-12-18T07:15:55.072Z,38.39
2018-12-18T07:16:57.619Z,39.06
2018-12-18T07:18:00.094Z,38.73
2018-12-18T07:19:02.556Z,38.17
2018-12-18T07:20:05.295Z,38.60
2018-12-18T07:21:07.751Z,38.49
2018-12-18T07:22:10.211Z,37.97
2018-12-18T07:23:12.678Z,37.82
2018-12-18T07:24:15.204Z,37.90
2018-12-18T07:25:17.702Z,38.12
2018-12-18T07:26:20.178Z,38.12
2018-12-18T07:27:22.651Z,38.28
2018-12-18T07:28:25.131Z,38.84
2018-12-18T07:29:27.663Z,38.49
2018-12-18T07:30:30.230Z,38.70
2018-12-18T07:31:32.707Z,39.02
2018-12-18T07:32:35.175Z,38.82
2018-12-18T07:33:37.671Z,38.81
2018-12-18T07:34:40.154Z,38.91
2018-12-18T07:35:42.661Z,38.77
2018-12-18T07:36:45.128Z,38.79
2018-12-18T07:37:47.598Z,39.15
2018-12-18T07:38:50.078Z,38.47
2018-12-18T07:39:52.554Z,39.08
2018-12-18T07:40:55.055Z,38.91
2018-12-18T07:41:57.542Z,38.93
2018-12-18T07:43:00.046Z,39.25
2018-12-18T07:44:02.517Z,39.39
2018-12-18T07:45:05.261Z,39.15
2018-12-18T07:46:07.755Z,38.93
2018-12-18T07:47:10.227Z,39.35
2018-12-18T07:48:12.749Z,39.45
2018-12-18T07:49:15.238Z,39.19
2018-12-18T07:50:17.733Z,39.04
2018-12-18T07:51:20.230Z,39.60
2018-12-18T07:52:22.695Z,39.89
2018-12-18T07:53:25.174Z,39.56
2018-12-18T07:54:27.651Z,39.48
2018-12-18T07:55:30.123Z,39.98
2018-12-18T07:56:32.633Z,39.35
2018-12-18T07:57:35.103Z,39.71
2018-12-18T07:58:37.597Z,40.11
2018-12-18T07:59:40.074Z,40.10
2018-12-18T08:00:42.556Z,39.31
2018-12-18T08:01:45.222Z,39.36
2018-12-18T08:02:47.701Z,39.78
2018-12-18T08:03:50.172Z,39.45
2018-12-18T08:04:52.700Z,40.11
2018-12-18T08:05:55.175Z,39.86
2018-12-18T08:06:57.684Z,39.63
2018-12-18T08:08:00.152Z,39.94
2018-12-18T08:09:02.989Z,39.65
2018-12-18T08:10:07.006Z,39.76
2018-12-18T08:11:09.470Z,39.92
2018-12-18T08:12:11.963Z,40.08
2018-12-18T08:13:14.424Z,40.34
2018-12-18T08:14:16.888Z,39.86
2018-12-18T08:15:19.384Z,40.63
2018-12-18T08:16:21.841Z,40.50
2018-12-18T08:17:24.332Z,40.75
2018-12-18T08:18:26.821Z,40.50
2018-12-18T08:19:29.321Z,40.38
2018-12-18T08:20:31.779Z,40.62
2018-12-18T08:21:34.269Z,40.33
2018-12-18T08:22:36.827Z,40.25
2018-12-18T08:23:39.306Z,40.20
2018-12-18T08:24:41.826Z,40.59
2018-12-18T08:25:44.302Z,40.78
2018-12-18T08:26:46.782Z,40.64
2018-12-18T08:27:49.300Z,40.57
2018-12-18T08:28:51.764Z,40.31
2018-12-18T08:29:54.238Z,41.01
2018-12-18T08:30:56.708Z,40.58
2018-12-18T08:31:59.219Z,40.61
2018-12-18T08:33:01.810Z,41.01
2018-12-18T08:34:04.275Z,41.06
2018-12-18T08:35:06.818Z,40.99
2018-12-18T08:36:09.306Z,40.84
2018-12-18T08:37:11.778Z,40.83
2018-12-18T08:38:14.280Z,40.83
2018-12-18T08:39:16.749Z,40.61
2018-12-18T08:40:19.204Z,40.65
2018-12-18T08:41:21.685Z,40.42
2018-12-18T08:42:24.167Z,40.75
2018-12-18T08:43:26.675Z,40.81
2018-12-18T08:44:29.203Z,41.17
2018-12-18T08:45:31.782Z,40.55
2018-12-18T08:46:34.254Z,40.59
2018-12-18T08:47:36.739Z,40.61
2018-12-18T08:48:39.242Z,40.95
2018-12-18T08:49:41.704Z,41.20
2018-12-18T08:50:44.184Z,41.21
2018-12-18T08:51:46.719Z,40.96
2018-12-18T08:52:49.200Z,41.01
2018-12-18T08:53:51.698Z,40.89
2018-12-18T08:54:54.185Z,41.34
2018-12-18T08:55:56.662Z,40.78
2018-12-18T08:56:59.150Z,41.07
2018-12-18T08:58:01.637Z,41.38
2018-12-18T08:59:04.212Z,41.31
2018-12-18T09:00:08.217Z,41.34
2018-12-18T09:01:10.698Z,40.78
2018-12-18T09:02:13.194Z,41.27
2018-12-18T09:03:15.696Z,41.50
2018-12-18T09:04:18.179Z,41.50
2018-12-18T09:05:20.651Z,40.87
2018-12-18T09:06:23.134Z,41.10
2018-12-18T09:07:25.685Z,40.82
2018-12-18T09:08:28.189Z,40.96
2018-12-18T09:09:30.680Z,40.76
2018-12-18T09:10:39.646Z,41.07
2018-12-18T09:11:37.646Z,41.24
2018-12-18T09:12:40.141Z,41.16
2018-12-18T09:13:42.641Z,41.08
2018-12-18T09:14:47.081Z,41.74
2018-12-18T09:15:55.620Z,41.51
2018-12-18T09:17:02.554Z,41.64
2018-12-18T09:18:05.035Z,41.30
2018-12-18T09:19:07.538Z,41.77
2018-12-18T09:20:10.288Z,41.01
2018-12-18T09:21:12.785Z,41.20
2018-12-18T09:22:15.267Z,41.07
2018-12-18T09:23:17.746Z,41.15
2018-12-18T09:24:20.237Z,40.93
2018-12-18T09:25:22.719Z,41.14
2018-12-18T09:26:25.197Z,41.58
2018-12-18T09:27:27.661Z,41.15
2018-12-18T09:28:30.153Z,41.71
2018-12-18T09:29:33.123Z,41.34
2018-12-18T09:30:39.598Z,41.23
2018-12-18T09:31:40.084Z,41.20
2018-12-18T09:32:42.541Z,41.52
2018-12-18T09:33:45.029Z,41.38
2018-12-18T09:34:47.533Z,41.37
2018-12-18T09:35:50.048Z,41.48
2018-12-18T09:36:52.624Z,41.12
2018-12-18T09:38:00.697Z,41.25
2018-12-18T09:39:10.689Z,41.63
2018-12-18T09:40:13.181Z,41.04
2018-12-18T09:41:33.457Z,41.06
2018-12-18T09:42:41.638Z,41.65
2018-12-18T09:43:49.756Z,40.99
2018-12-18T09:44:52.250Z,40.86
2018-12-18T09:45:54.743Z,40.83
2018-12-18T09:46:57.241Z,41.44
2018-12-18T09:47:59.705Z,41.13
2018-12-18T09:49:02.182Z,41.09
2018-12-18T09:50:05.790Z,41.21
2018-12-18T09:51:08.345Z,41.38
2018-12-18T09:52:10.840Z,41.12
2018-12-18T09:53:13.337Z,41.47
2018-12-18T09:54:15.837Z,40.92
2018-12-18T09:55:18.391Z,40.96
2018-12-18T09:56:20.878Z,41.76
2018-12-18T09:57:29.071Z,41.30
2018-12-18T09:58:31.547Z,41.23
2018-12-18T09:59:34.014Z,41.26
2018-12-18T10:00:36.525Z,41.29
2018-12-18T10:01:39.029Z,41.07
2018-12-18T10:02:41.501Z,41.00
2018-12-18T10:03:43.988Z,41.41
2018-12-18T10:04:46.496Z,41.20
2018-12-18T10:05:49.035Z,41.30
2018-12-18T10:06:51.974Z,41.23
2018-12-18T10:07:54.459Z,41.24
2018-12-18T10:08:56.916Z,41.31
2018-12-18T10:09:59.372Z,40.89
2018-12-18T10:11:01.871Z,41.22
2018-12-18T10:12:04.806Z,41.28
2018-12-18T10:13:07.567Z,40.86
2018-12-18T10:14:10.041Z,41.05
2018-12-18T10:15:12.958Z,41.41
2018-12-18T10:16:15.892Z,41.14
2018-12-18T10:17:18.419Z,41.13
2018-12-18T10:18:20.919Z,41.19
2018-12-18T10:19:23.413Z,41.00
2018-12-18T10:20:25.881Z,41.51
2018-12-18T10:21:28.459Z,41.27
2018-12-18T10:22:30.942Z,41.00
2018-12-18T10:23:33.399Z,41.30
2018-12-18T10:24:35.894Z,41.29
2018-12-18T10:25:38.372Z,41.04
2018-12-18T10:26:40.861Z,40.96
2018-12-18T10:27:43.414Z,41.29
2018-12-18T10:28:45.890Z,41.21
2018-12-18T10:29:48.385Z,40.82
2018-12-18T10:30:50.856Z,41.48
2018-12-18T10:31:53.340Z,41.14
2018-12-18T10:32:55.892Z,40.80
2018-12-18T10:33:58.383Z,41.59
2018-12-18T10:35:00.851Z,41.35
2018-12-18T10:36:03.348Z,41.43
2018-12-18T10:37:05.859Z,41.25
2018-12-18T10:38:08.338Z,41.34
2018-12-18T10:39:10.807Z,41.60
2018-12-18T10:40:13.277Z,41.74
2018-12-18T10:41:15.746Z,41.72
2018-12-18T10:42:18.250Z,41.30
2018-12-18T10:43:20.749Z,40.86
2018-12-18T10:44:23.219Z,40.91
2018-12-18T10:45:26.201Z,40.90
2018-12-18T10:46:28.670Z,41.54
2018-12-18T10:47:31.171Z,41.46
2018-12-18T10:48:33.650Z,41.51
2018-12-18T10:49:36.111Z,40.77
2018-12-18T10:50:38.598Z,41.57
2018-12-18T10:51:41.093Z,40.85
2018-12-18T10:52:43.573Z,41.37
2018-12-18T10:53:46.062Z,41.24
2018-12-18T10:54:48.962Z,40.90
2018-12-18T10:55:51.447Z,41.05
2018-12-18T10:56:53.949Z,41.20
2018-12-18T10:57:56.432Z,41.48
2018-12-18T10:58:59.045Z,41.07
2018-12-18T11:00:01.527Z,41.49
2018-12-18T11:01:09.658Z,41.32
2018-12-18T11:02:12.664Z,40.96
2018-12-18T11:03:15.182Z,41.32
2018-12-18T11:04:17.705Z,41.75
2018-12-18T11:05:20.209Z,41.49
2018-12-18T11:06:22.749Z,41.12
2018-12-18T11:07:25.212Z,41.03
2018-12-18T11:08:27.708Z,41.41
2018-12-18T11:09:30.187Z,40.85
2018-12-18T11:10:33.048Z,41.26
2018-12-18T11:11:35.591Z,41.38
2018-12-18T11:12:39.137Z,41.18
2018-12-18T11:13:41.706Z,41.58
2018-12-18T11:14:44.186Z,41.76
2018-12-18T11:15:46.656Z,41.62
2018-12-18T11:16:49.126Z,41.71
2018-12-18T11:17:51.610Z,41.98
2018-12-18T11:18:54.092Z,41.24
2018-12-18T11:19:56.566Z,42.03
2018-12-18T11:20:59.056Z,41.13
2018-12-18T11:22:01.540Z,41.50
2018-12-18T11:23:04.024Z,41.40
2018-12-18T11:24:06.541Z,41.29
2018-12-18T11:25:09.019Z,41.25
2018-12-18T11:26:11.495Z,41.94
2018-12-18T11:27:13.971Z,41.39
2018-12-18T11:28:16.451Z,41.50
2018-12-18T11:29:18.942Z,41.53
2018-12-18T11:30:21.507Z,41.82
2018-12-18T11:31:24.125Z,41.80
2018-12-18T11:32:32.999Z,41.86
2018-12-18T11:33:31.145Z,41.44
2018-12-18T11:34:33.636Z,41.71
2018-12-18T11:35:36.108Z,41.89
2018-12-18T11:36:38.742Z,41.32
2018-12-18T11:37:41.224Z,41.64
2018-12-18T11:38:43.695Z,41.45
2018-12-18T11:39:46.198Z,42.04
2018-12-18T11:40:48.674Z,41.98
2018-12-18T11:41:51.154Z,42.00
2018-12-18T11:42:53.688Z,41.95
2018-12-18T11:43:56.153Z,41.76
2018-12-18T11:44:58.647Z,41.88
2018-12-18T11:46:01.121Z,41.75
2018-12-18T11:47:03.614Z,41.64
2018-12-18T11:48:06.100Z,41.56
2018-12-18T11:49:08.578Z,41.48
2018-12-18T11:50:11.080Z,41.51
2018-12-18T11:51:13.553Z,41.71
2018-12-18T11:52:16.041Z,41.63
2018-12-18T11:53:18.610Z,41.51
2018-12-18T11:54:21.237Z,41.82
2018-12-18T11:55:23.742Z,42.08
2018-12-18T11:56:26.218Z,41.65
2018-12-18T11:57:28.718Z,41.88
2018-12-18T11:58:31.216Z,41.43
2018-12-18T11:59:33.690Z,42.09
2018-12-18T12:00:36.459Z,42.11
2018-12-18T12:01:38.959Z,41.96
2018-12-18T12:02:43.001Z,41.51
2018-12-18T12:03:45.608Z,41.67
2018-12-18T12:04:48.067Z,42.10
2018-12-18T12:05:50.553Z,42.03
2018-12-18T12:06:53.013Z,41.60
2018-12-18T12:07:55.495Z,41.64
2018-12-18T12:08:57.952Z,41.32
2018-12-18T12:10:00.415Z,41.71
2018-12-18T12:11:02.973Z,41.83
2018-12-18T12:12:05.499Z,41.77
2018-12-18T12:13:07.972Z,41.60
2018-12-18T12:14:10.436Z,42.07
2018-12-18T12:15:13.128Z,41.53
2018-12-18T12:16:15.604Z,41.61
2018-12-18T12:17:18.225Z,41.92
2018-12-18T12:18:20.690Z,42.13
2018-12-18T12:19:23.152Z,42.12
2018-12-18T12:20:25.623Z,42.02
2018-12-18T12:21:28.165Z,41.36
2018-12-18T12:22:30.628Z,41.79
2018-12-18T12:23:33.076Z,42.00
2018-12-18T12:24:35.540Z,41.85
2018-12-18T12:25:38.004Z,41.59
2018-12-18T12:26:42.444Z,41.65
2018-12-18T12:27:50.595Z,42.18
2018-12-18T12:28:53.476Z,41.63
2018-12-18T12:29:55.957Z,41.71
2018-12-18T12:30:58.413Z,41.67
2018-12-18T12:32:00.896Z,41.50
2018-12-18T12:33:03.484Z,41.63
2018-12-18T12:34:05.957Z,41.54
2018-12-18T12:35:08.479Z,41.36
2018-12-18T12:36:10.932Z,41.54
2018-12-18T12:37:13.415Z,41.43
2018-12-18T12:38:15.872Z,41.98
2018-12-18T12:39:18.328Z,41.51
2018-12-18T12:40:20.788Z,42.18
2018-12-18T12:41:23.251Z,41.86
2018-12-18T12:42:25.741Z,41.74
2018-12-18T12:43:28.215Z,42.28
2018-12-18T12:44:30.704Z,41.80
2018-12-18T12:45:33.167Z,41.90
2018-12-18T12:46:35.636Z,42.12
2018-12-18T12:47:38.116Z,41.62
2018-12-18T12:48:46.191Z,41.28
2018-12-18T12:49:48.662Z,41.50
2018-12-18T12:50:51.134Z,41.30
2018-12-18T12:51:53.714Z,41.61
2018-12-18T12:52:56.192Z,41.87
2018-12-18T12:53:58.661Z,41.92
2018-12-18T12:55:01.139Z,41.76
2018-12-18T12:56:03.605Z,41.58
2018-12-18T12:57:06.140Z,41.66
2018-12-18T12:58:08.624Z,41.61
2018-12-18T12:59:11.452Z,41.90
2018-12-18T13:00:13.979Z,41.83
2018-12-18T13:01:16.444Z,41.66
2018-12-18T13:02:18.920Z,42.37
2018-12-18T13:03:21.400Z,42.29
2018-12-18T13:04:23.868Z,41.32
2018-12-18T13:05:26.335Z,42.13
2018-12-18T13:06:28.804Z,42.23
2018-12-18T13:07:31.264Z,41.93
2018-12-18T13:08:33.740Z,41.64
2018-12-18T13:09:36.272Z,41.66
2018-12-18T13:10:38.736Z,41.72
2018-12-18T13:11:41.324Z,41.66
2018-12-18T13:12:43.996Z,41.69
2018-12-18T13:13:46.481Z,42.19
2018-12-18T13:14:48.952Z,41.79
2018-12-18T13:15:51.423Z,41.95
2018-12-18T13:16:53.883Z,41.86
2018-12-18T13:17:56.340Z,41.89
2018-12-18T13:18:58.808Z,42.27
2018-12-18T13:20:01.280Z,41.73
2018-12-18T13:21:03.912Z,42.25
2018-12-18T13:22:06.529Z,42.20
2018-12-18T13:23:08.999Z,41.87
2018-12-18T13:24:11.607Z,42.21
2018-12-18T13:25:14.074Z,41.82
2018-12-18T13:26:16.535Z,42.06